createdAt,value
2019-06-07T00:00:33.568Z,19.00
2019-06-07T00:02:50.110Z,18.90
2019-06-07T00:05:19.977Z,18.90
2019-06-07T00:07:48.722Z,18.90
2019-06-07T00:10:34.919Z,18.90
2019-06-07T00:12:47.707Z,18.80
2019-06-07T00:15:26.601Z,18.80
2019-06-07T00:17:47.276Z,18.80
2019-06-07T00:20:20.435Z,18.70
2019-06-07T00:22:47.107Z,18.60
2019-06-07T00:25:20.257Z,18.70
2019-06-07T00:27:46.023Z,18.60
2019-06-07T00:30:44.574Z,18.60
2019-06-07T00:32:45.669Z,18.70
2019-06-07T00:35:17.114Z,18.60
2019-06-07T00:37:44.665Z,18.60
2019-06-07T00:40:24.079Z,18.50
2019-06-07T00:42:45.978Z,18.60
2019-06-07T00:45:18.987Z,18.50
2019-06-07T00:47:45.204Z,18.50
2019-06-07T00:50:16.372Z,18.50
2019-06-07T00:55:18.110Z,18.50
2019-06-07T00:57:46.658Z,18.50
2019-06-07T01:00:21.449Z,18.50
2019-06-07T01:02:48.133Z,18.50
2019-06-07T01:05:21.992Z,18.50
2019-06-07T01:07:47.181Z,18.50
2019-06-07T01:10:34.577Z,18.40
2019-06-07T01:12:47.568Z,18.40
2019-06-07T01:15:20.556Z,18.40
2019-06-07T01:18:33.244Z,18.40
2019-06-07T01:20:21.286Z,18.30
2019-06-07T01:22:49.372Z,18.30
2019-06-07T01:25:18.903Z,18.30
2019-06-07T01:27:48.305Z,18.30
2019-06-07T01:30:18.951Z,18.30
2019-06-07T01:33:07.961Z,18.20
2019-06-07T01:35:36.438Z,18.20
2019-06-07T01:38:05.061Z,18.30
2019-06-07T01:40:33.676Z,18.30
2019-06-07T01:43:02.179Z,18.30
2019-06-07T01:45:31.195Z,18.30
2019-06-07T01:48:00.081Z,18.30
2019-06-07T01:50:29.737Z,18.30
2019-06-07T01:52:58.577Z,18.30
2019-06-07T01:55:31.694Z,18.40
2019-06-07T01:57:57.486Z,18.40
2019-06-07T02:00:32.005Z,18.50
2019-06-07T02:02:58.346Z,18.50
2019-06-07T02:05:30.918Z,18.50
2019-06-07T02:07:57.115Z,18.40
2019-06-07T02:10:29.888Z,18.40
2019-06-07T02:12:56.029Z,18.50
2019-06-07T02:15:27.636Z,18.50
2019-06-07T02:17:54.877Z,18.40
2019-06-07T02:20:26.437Z,18.50
2019-06-07T02:22:53.793Z,18.40
2019-06-07T02:25:45.861Z,18.40
2019-06-07T02:27:52.601Z,18.40
2019-06-07T02:30:40.378Z,18.50
2019-06-07T02:32:51.507Z,18.50
2019-06-07T02:35:22.563Z,18.50
2019-06-07T02:37:50.567Z,18.50
2019-06-07T02:40:19.458Z,18.60
2019-06-07T02:42:48.000Z,18.60
2019-06-07T02:45:16.722Z,18.70
2019-06-07T02:47:46.922Z,18.70
2019-06-07T02:50:15.769Z,18.60
2019-06-07T02:52:44.415Z,18.60
2019-06-07T02:55:14.814Z,18.50
2019-06-07T02:57:43.589Z,18.50
2019-06-07T03:00:41.712Z,18.60
2019-06-07T03:02:44.854Z,18.60
2019-06-07T03:05:13.689Z,18.60
2019-06-07T03:07:45.351Z,18.60
2019-06-07T03:10:14.923Z,18.60
2019-06-07T03:12:45.257Z,18.60
2019-06-07T03:15:32.030Z,18.70
2019-06-07T03:17:55.119Z,18.70
2019-06-07T03:20:31.182Z,18.80
2019-06-07T03:23:01.798Z,18.80
2019-06-07T03:25:37.269Z,18.80
2019-06-07T03:28:07.430Z,19.00
2019-06-07T03:30:48.756Z,18.90
2019-06-07T03:33:06.252Z,19.00
2019-06-07T03:35:36.885Z,19.00
2019-06-07T03:38:05.186Z,19.00
2019-06-07T03:40:37.745Z,19.00
2019-06-07T03:43:03.961Z,19.10
2019-06-07T03:45:34.832Z,19.00
2019-06-07T03:48:02.737Z,19.00
2019-06-07T03:50:33.538Z,19.00
2019-06-07T03:53:01.560Z,19.10
2019-06-07T03:55:31.220Z,19.10
2019-06-07T03:58:30.593Z,19.10
2019-06-07T04:00:32.937Z,19.10
2019-06-07T04:03:00.941Z,19.10
2019-06-07T04:05:32.137Z,19.20
2019-06-07T04:07:59.756Z,19.20
2019-06-07T04:10:52.062Z,19.30
2019-06-07T04:12:58.598Z,19.40
2019-06-07T04:15:28.100Z,19.40
2019-06-07T04:18:01.782Z,19.50
2019-06-07T04:20:29.139Z,19.50
2019-06-07T04:22:57.262Z,19.60
2019-06-07T04:25:25.813Z,19.70
2019-06-07T04:27:54.354Z,19.70
2019-06-07T04:30:42.802Z,19.80
2019-06-07T04:33:12.567Z,19.80
2019-06-07T04:35:43.144Z,19.80
2019-06-07T04:38:13.049Z,19.80
2019-06-07T04:40:42.992Z,19.90
2019-06-07T04:43:12.671Z,20.00
2019-06-07T04:45:50.364Z,20.00
2019-06-07T04:48:11.898Z,20.10
2019-06-07T04:50:43.618Z,20.10
2019-06-07T04:53:10.924Z,20.10
2019-06-07T04:55:41.370Z,20.10
2019-06-07T04:58:09.914Z,20.10
2019-06-07T05:01:02.421Z,20.20
2019-06-07T05:03:08.832Z,20.20
2019-06-07T05:05:43.096Z,20.10
2019-06-07T05:08:26.412Z,20.10
2019-06-07T05:10:40.554Z,20.10
2019-06-07T05:13:08.327Z,20.10
2019-06-07T05:15:38.997Z,20.10
2019-06-07T05:18:26.378Z,20.10
2019-06-07T05:20:55.509Z,20.10
2019-06-07T05:25:54.536Z,19.90
2019-06-07T05:28:23.190Z,19.80
2019-06-07T05:31:03.802Z,19.80
2019-06-07T05:33:22.009Z,19.70
2019-06-07T05:35:50.591Z,19.60
2019-06-07T05:38:19.254Z,19.50
2019-06-07T05:40:48.896Z,19.40
2019-06-07T05:43:28.652Z,19.40
2019-06-07T05:45:57.233Z,19.40
2019-06-07T05:48:26.831Z,19.50
2019-06-07T05:50:57.225Z,19.50
2019-06-07T05:53:26.074Z,19.50
2019-06-07T05:55:54.724Z,19.50
2019-06-07T05:58:23.264Z,19.40
2019-06-07T06:00:51.873Z,19.40
2019-06-07T06:03:20.521Z,19.30
2019-06-07T06:05:54.997Z,19.30
2019-06-07T06:08:19.562Z,19.30
2019-06-07T06:10:48.965Z,19.20
2019-06-07T06:13:17.674Z,19.20
2019-06-07T06:16:00.452Z,19.20
2019-06-07T06:18:16.658Z,19.10
2019-06-07T06:21:09.731Z,19.20
2019-06-07T06:23:15.478Z,19.10
2019-06-07T06:25:50.980Z,19.10
2019-06-07T06:28:16.208Z,19.10
2019-06-07T06:30:47.480Z,19.00
2019-06-07T06:33:30.494Z,18.90
2019-06-07T06:35:48.926Z,18.90
2019-06-07T06:38:15.602Z,18.70
2019-06-07T06:40:48.809Z,18.60
2019-06-07T06:43:15.149Z,18.60
2019-06-07T06:45:47.846Z,18.70
2019-06-07T06:48:14.097Z,18.60
2019-06-07T06:50:44.323Z,18.70
2019-06-07T06:53:12.783Z,18.80
2019-06-07T06:55:41.561Z,18.80
2019-06-07T06:58:10.378Z,18.70
2019-06-07T07:00:59.358Z,18.80
2019-06-07T07:03:54.217Z,18.70
2019-06-07T07:05:54.764Z,18.80
2019-06-07T07:08:21.434Z,18.90
2019-06-07T07:10:53.240Z,18.80
2019-06-07T07:13:20.411Z,18.80
2019-06-07T07:15:55.178Z,18.90
2019-06-07T07:18:19.622Z,19.00
2019-06-07T07:20:50.437Z,19.00
2019-06-07T07:23:18.529Z,19.00
2019-06-07T07:25:57.290Z,19.00
2019-06-07T07:28:17.362Z,19.10
2019-06-07T07:30:56.379Z,19.10
2019-06-07T07:33:22.257Z,19.10
2019-06-07T07:36:15.827Z,19.20
2019-06-07T07:38:21.494Z,19.20
2019-06-07T07:41:09.039Z,19.10
2019-06-07T07:43:20.446Z,19.10
2019-06-07T07:45:55.001Z,19.10
2019-06-07T07:48:19.309Z,19.20
2019-06-07T07:50:51.480Z,19.20
2019-06-07T07:53:18.247Z,19.20
2019-06-07T07:55:50.446Z,19.30
2019-06-07T07:58:17.217Z,19.40
2019-06-07T08:00:53.137Z,19.40
2019-06-07T08:03:16.080Z,19.50
2019-06-07T08:05:46.550Z,19.50
2019-06-07T08:08:15.062Z,19.50
2019-06-07T08:10:43.812Z,19.60
2019-06-07T08:13:24.710Z,19.60
2019-06-07T08:15:42.720Z,19.60
2019-06-07T08:18:11.472Z,19.60
2019-06-07T08:20:40.117Z,19.60
2019-06-07T08:23:08.757Z,19.70
2019-06-07T08:25:37.440Z,19.80
2019-06-07T08:28:05.990Z,19.80
2019-06-07T08:30:50.132Z,19.90
2019-06-07T08:33:24.505Z,20.10
2019-06-07T08:38:24.962Z,20.20
2019-06-07T08:40:35.885Z,20.30
2019-06-07T08:43:18.211Z,20.50
2019-06-07T08:45:34.930Z,20.80
2019-06-07T08:48:13.021Z,21.00
2019-06-07T08:50:33.741Z,21.10
2019-06-07T08:53:11.525Z,21.20
2019-06-07T08:55:32.569Z,21.50
2019-06-07T08:58:04.122Z,21.60
2019-06-07T09:00:48.115Z,21.80
2019-06-07T09:03:05.050Z,22.10
2019-06-07T09:05:32.693Z,22.30
2019-06-07T09:08:23.500Z,22.40
2019-06-07T09:10:32.831Z,22.60
2019-06-07T09:13:07.600Z,22.80
2019-06-07T09:15:31.633Z,22.90
2019-06-07T09:20:48.739Z,23.10
2019-06-07T09:23:18.041Z,23.20
2019-06-07T09:25:57.518Z,23.20
2019-06-07T09:28:20.043Z,23.30
2019-06-07T09:30:47.473Z,23.20
2019-06-07T09:33:15.939Z,23.10
2019-06-07T09:35:44.631Z,23.30
2019-06-07T09:38:25.146Z,23.30
2019-06-07T09:40:43.620Z,23.40
2019-06-07T09:44:00.090Z,23.60
2019-06-07T09:45:42.486Z,23.70
2019-06-07T09:48:16.050Z,23.80
2019-06-07T09:50:41.522Z,23.80
2019-06-07T09:53:21.605Z,24.00
2019-06-07T09:55:40.544Z,24.20
2019-06-07T09:58:48.588Z,24.40
2019-06-07T10:00:41.926Z,24.10
2019-06-07T10:03:20.496Z,24.30
2019-06-07T10:05:40.711Z,24.10
2019-06-07T10:08:41.165Z,24.40
2019-06-07T10:10:42.636Z,24.40
2019-06-07T10:13:10.319Z,24.40
2019-06-07T10:15:39.228Z,24.50
2019-06-07T10:18:09.024Z,24.70
2019-06-07T10:20:38.203Z,24.80
2019-06-07T10:23:07.974Z,25.10
2019-06-07T10:25:37.113Z,25.20
2019-06-07T10:28:06.189Z,25.40
2019-06-07T10:30:35.074Z,25.60
2019-06-07T10:33:04.876Z,25.40
2019-06-07T10:35:34.078Z,25.60
2019-06-07T10:38:02.748Z,25.60
2019-06-07T10:40:31.314Z,25.60
2019-06-07T10:43:01.178Z,25.80
2019-06-07T10:45:29.854Z,26.20
2019-06-07T10:47:58.489Z,26.50
2019-06-07T10:50:27.779Z,26.30
2019-06-07T10:52:56.328Z,26.50
2019-06-07T10:55:25.030Z,26.60
2019-06-07T10:57:53.726Z,26.70
2019-06-07T11:00:23.206Z,27.00
2019-06-07T11:02:54.939Z,27.10
2019-06-07T11:05:22.173Z,26.90
2019-06-07T11:07:50.964Z,27.20
2019-06-07T11:10:20.321Z,27.10
2019-06-07T11:12:49.139Z,27.10
2019-06-07T11:15:18.020Z,27.50
2019-06-07T11:17:46.708Z,27.70
2019-06-07T11:20:16.035Z,27.90
2019-06-07T11:22:44.592Z,28.10
2019-06-07T11:25:14.698Z,27.90
2019-06-07T11:27:43.605Z,28.00
2019-06-07T11:30:12.797Z,28.20
2019-06-07T11:32:41.408Z,28.10
2019-06-07T11:35:11.829Z,28.10
2019-06-07T11:37:41.192Z,28.20
2019-06-07T11:40:34.995Z,28.10
2019-06-07T11:42:42.001Z,27.60
2019-06-07T11:45:12.863Z,27.40
2019-06-07T11:47:41.353Z,27.40
2019-06-07T11:50:11.883Z,27.20
2019-06-07T11:52:40.695Z,27.10
2019-06-07T11:55:11.398Z,27.10
2019-06-07T11:57:40.325Z,27.20
2019-06-07T12:00:13.586Z,27.30
2019-06-07T12:02:42.142Z,27.20
2019-06-07T12:05:16.138Z,27.30
2019-06-07T12:07:42.549Z,27.50
2019-06-07T12:10:14.506Z,27.60
2019-06-07T12:12:43.566Z,27.70
2019-06-07T12:15:12.920Z,27.80
2019-06-07T12:17:41.684Z,28.10
2019-06-07T12:20:12.687Z,28.00
2019-06-07T12:22:40.887Z,28.00
2019-06-07T12:25:10.339Z,28.10
2019-06-07T12:27:39.120Z,28.00
2019-06-07T12:30:13.047Z,27.90
2019-06-07T12:32:39.447Z,27.90
2019-06-07T12:35:08.885Z,27.80
2019-06-07T12:37:44.223Z,27.70
2019-06-07T12:40:10.065Z,27.70
2019-06-07T12:42:39.079Z,27.20
2019-06-07T12:45:10.165Z,27.50
2019-06-07T12:47:38.781Z,27.50
2019-06-07T12:50:08.662Z,27.60
2019-06-07T12:52:37.346Z,27.70
2019-06-07T12:55:08.835Z,27.50
2019-06-07T12:57:37.544Z,27.60
2019-06-07T13:00:09.297Z,27.40
2019-06-07T13:02:38.010Z,27.10
2019-06-07T13:05:08.265Z,27.10
2019-06-07T13:07:36.958Z,27.20
2019-06-07T13:10:07.717Z,27.00
2019-06-07T13:12:36.321Z,26.80
2019-06-07T13:15:07.090Z,27.00
2019-06-07T13:17:36.792Z,26.90
2019-06-07T13:20:07.945Z,26.60
2019-06-07T13:22:36.563Z,26.50
2019-06-07T13:25:07.559Z,26.60
2019-06-07T13:27:36.235Z,26.60
2019-06-07T13:30:10.478Z,26.70
2019-06-07T13:32:37.538Z,26.80
2019-06-07T13:35:07.544Z,26.80
2019-06-07T13:37:36.266Z,26.60
2019-06-07T13:40:08.700Z,26.50
2019-06-07T13:42:37.612Z,26.70
2019-06-07T13:45:07.212Z,26.50
2019-06-07T13:47:35.839Z,26.50
2019-06-07T13:50:08.178Z,26.60
2019-06-07T13:52:37.644Z,26.70
2019-06-07T13:55:07.091Z,26.70
2019-06-07T13:57:35.701Z,26.70
2019-06-07T14:00:10.834Z,26.70
2019-06-07T14:02:37.718Z,26.80
2019-06-07T14:05:08.597Z,26.80
2019-06-07T14:07:37.284Z,26.80
2019-06-07T14:10:11.584Z,26.80
2019-06-07T14:12:40.272Z,26.80
2019-06-07T14:15:11.060Z,26.60
2019-06-07T14:17:39.625Z,26.60
2019-06-07T14:20:09.854Z,26.60
2019-06-07T14:22:39.053Z,26.70
2019-06-07T14:25:09.763Z,26.70
2019-06-07T14:27:38.527Z,26.70
2019-06-07T14:30:10.779Z,26.90
2019-06-07T14:32:39.505Z,27.00
2019-06-07T14:35:08.986Z,27.00
2019-06-07T14:37:37.674Z,27.10
2019-06-07T14:40:08.995Z,27.00
2019-06-07T14:42:37.615Z,26.80
2019-06-07T14:45:08.107Z,26.80
2019-06-07T14:47:36.836Z,26.90
2019-06-07T14:50:11.089Z,26.90
2019-06-07T14:52:39.627Z,26.90
2019-06-07T14:55:09.416Z,27.00
2019-06-07T14:57:38.531Z,27.00
2019-06-07T15:00:12.864Z,27.10
2019-06-07T15:02:41.477Z,27.10
2019-06-07T15:05:11.498Z,27.20
2019-06-07T15:07:40.774Z,27.30
2019-06-07T15:10:10.660Z,27.30
2019-06-07T15:12:39.941Z,27.40
2019-06-07T15:15:10.230Z,27.50
2019-06-07T15:17:39.231Z,27.60
2019-06-07T15:20:08.799Z,27.60
2019-06-07T15:22:38.828Z,27.50
2019-06-07T15:25:09.017Z,27.40
2019-06-07T15:27:37.862Z,27.40
2019-06-07T15:30:10.285Z,27.50
2019-06-07T15:32:39.553Z,27.60
2019-06-07T15:35:09.191Z,27.50
2019-06-07T15:37:39.225Z,27.60
2019-06-07T15:40:10.252Z,27.60
2019-06-07T15:42:51.449Z,27.60
2019-06-07T15:45:09.766Z,27.40
2019-06-07T15:47:40.007Z,27.40
2019-06-07T15:50:09.304Z,27.30
2019-06-07T15:52:38.301Z,27.30
2019-06-07T15:55:09.726Z,27.30
2019-06-07T15:57:39.622Z,27.20
2019-06-07T16:00:14.188Z,27.20
2019-06-07T16:02:42.997Z,27.10
2019-06-07T16:05:13.084Z,27.10
2019-06-07T16:07:43.057Z,27.20
2019-06-07T16:10:14.223Z,26.90
2019-06-07T16:12:58.898Z,26.80
2019-06-07T16:15:14.689Z,26.70
2019-06-07T16:17:43.906Z,26.70
2019-06-07T16:20:15.025Z,26.50
2019-06-07T16:22:44.022Z,26.40
2019-06-07T16:25:12.956Z,26.30
2019-06-07T16:27:42.818Z,26.30
2019-06-07T16:30:12.857Z,26.20
2019-06-07T16:32:42.010Z,26.20
2019-06-07T16:35:14.689Z,26.10
2019-06-07T16:37:45.833Z,26.00
2019-06-07T16:40:15.399Z,26.00
2019-06-07T16:42:45.107Z,26.00
2019-06-07T16:45:16.453Z,26.00
2019-06-07T16:47:47.552Z,26.00
2019-06-07T16:50:15.847Z,25.90
2019-06-07T16:52:46.490Z,25.90
2019-06-07T16:55:15.370Z,25.80
2019-06-07T16:57:45.202Z,25.80
2019-06-07T17:00:14.708Z,25.70
2019-06-07T17:02:44.990Z,25.70
2019-06-07T17:05:14.561Z,25.70
2019-06-07T17:07:44.650Z,25.60
2019-06-07T17:10:14.277Z,25.60
2019-06-07T17:12:43.352Z,25.60
2019-06-07T17:15:15.418Z,25.50
2019-06-07T17:17:45.114Z,25.40
2019-06-07T17:20:14.608Z,25.40
2019-06-07T17:22:43.969Z,25.40
2019-06-07T17:25:15.381Z,25.30
2019-06-07T17:27:44.009Z,25.30
2019-06-07T17:30:13.982Z,25.30
2019-06-07T17:32:50.515Z,25.20
2019-06-07T17:35:13.204Z,25.20
2019-06-07T17:37:43.629Z,25.10
2019-06-07T17:40:12.959Z,25.10
2019-06-07T17:42:42.666Z,25.00
2019-06-07T17:45:11.958Z,25.00
2019-06-07T17:47:41.637Z,24.90
2019-06-07T17:50:12.612Z,24.90
2019-06-07T17:52:41.765Z,24.80
2019-06-07T17:55:12.426Z,24.80
2019-06-07T17:57:42.131Z,24.70
2019-06-07T18:00:29.300Z,24.70
2019-06-07T18:02:44.719Z,24.70
2019-06-07T18:05:13.809Z,24.60
2019-06-07T18:07:45.347Z,24.60
2019-06-07T18:10:17.141Z,24.50
2019-06-07T18:12:46.049Z,24.40
2019-06-07T18:15:17.917Z,24.40
2019-06-07T18:17:46.462Z,24.30
2019-06-07T18:20:15.295Z,24.30
2019-06-07T18:22:44.978Z,24.20
2019-06-07T18:25:14.289Z,24.10
2019-06-07T18:27:42.760Z,24.10
2019-06-07T18:30:12.111Z,24.00
2019-06-07T18:32:40.825Z,23.90
2019-06-07T18:35:09.509Z,23.90
2019-06-07T18:37:37.984Z,23.80
2019-06-07T18:40:09.698Z,23.80
2019-06-07T18:42:38.587Z,23.60
2019-06-07T18:45:10.297Z,23.60
2019-06-07T18:47:38.997Z,23.50
2019-06-07T18:50:09.486Z,23.40
2019-06-07T18:52:40.016Z,23.30
2019-06-07T18:55:09.821Z,23.20
2019-06-07T18:57:38.455Z,23.20
2019-06-07T19:00:12.739Z,23.10
2019-06-07T19:02:41.435Z,23.00
2019-06-07T19:05:11.612Z,22.90
2019-06-07T19:07:40.238Z,22.80
2019-06-07T19:10:13.106Z,22.70
2019-06-07T19:12:41.651Z,22.60
2019-06-07T19:15:12.821Z,22.50
2019-06-07T19:17:41.430Z,22.40
2019-06-07T19:20:11.431Z,22.30
2019-06-07T19:22:40.159Z,22.20
2019-06-07T19:25:10.637Z,22.10
2019-06-07T19:27:39.327Z,22.10
2019-06-07T19:30:08.947Z,22.00
2019-06-07T19:32:37.635Z,21.90
2019-06-07T19:35:08.385Z,21.80
2019-06-07T19:37:36.929Z,21.70
2019-06-07T19:40:08.897Z,21.60
2019-06-07T19:42:37.542Z,21.50
2019-06-07T19:45:28.839Z,21.40
2019-06-07T19:47:38.240Z,21.40
2019-06-07T19:50:08.253Z,21.30
2019-06-07T19:52:37.008Z,21.20
2019-06-07T19:55:09.384Z,21.10
2019-06-07T19:57:36.785Z,21.00
2019-06-07T20:00:14.083Z,20.90
2019-06-07T20:02:39.701Z,20.90
2019-06-07T20:05:13.301Z,20.80
2019-06-07T20:07:42.847Z,20.70
2019-06-07T20:10:13.426Z,20.70
2019-06-07T20:12:42.120Z,20.60
2019-06-07T20:15:28.462Z,20.50
2019-06-07T20:17:46.900Z,20.40
2019-06-07T20:20:17.585Z,20.40
2019-06-07T20:22:46.163Z,20.30
2019-06-07T20:25:15.246Z,20.20
2019-06-07T20:27:43.884Z,20.20
2019-06-07T20:30:13.610Z,20.10
2019-06-07T20:32:42.158Z,20.00
2019-06-07T20:35:11.265Z,19.90
2019-06-07T20:37:39.757Z,19.90
2019-06-07T20:40:22.664Z,19.80
2019-06-07T20:42:39.555Z,19.80
2019-06-07T20:45:09.107Z,19.70
2019-06-07T20:47:37.825Z,19.70
2019-06-07T20:50:08.835Z,19.60
2019-06-07T20:52:37.582Z,19.60
2019-06-07T20:55:09.873Z,19.50
2019-06-07T20:57:38.790Z,19.40
2019-06-07T21:00:20.699Z,19.40
2019-06-07T21:02:39.831Z,19.30
2019-06-07T21:05:09.911Z,19.30
2019-06-07T21:07:38.963Z,19.20
2019-06-07T21:10:10.620Z,19.20
2019-06-07T21:12:39.781Z,19.10
2019-06-07T21:15:12.760Z,19.10
2019-06-07T21:17:39.285Z,19.10
2019-06-07T21:20:11.825Z,19.00
2019-06-07T21:22:39.148Z,19.00
2019-06-07T21:25:09.200Z,18.90
2019-06-07T21:27:38.194Z,18.90
2019-06-07T21:30:09.544Z,18.80
2019-06-07T21:32:38.212Z,18.80
2019-06-07T21:35:08.149Z,18.70
2019-06-07T21:37:36.849Z,18.60
2019-06-07T21:40:08.025Z,18.60
2019-06-07T21:42:36.967Z,18.60
2019-06-07T21:45:07.974Z,18.50
2019-06-07T21:47:38.329Z,18.50
2019-06-07T21:50:08.659Z,18.40
2019-06-07T21:52:37.579Z,18.30
2019-06-07T21:55:09.071Z,18.30
2019-06-07T21:57:38.265Z,18.20
2019-06-07T22:00:12.177Z,18.20
2019-06-07T22:02:41.942Z,18.10
2019-06-07T22:05:11.731Z,18.10
2019-06-07T22:07:40.499Z,18.00
2019-06-07T22:10:10.062Z,18.00
2019-06-07T22:12:38.981Z,18.00
2019-06-07T22:15:29.153Z,17.90
2019-06-07T22:17:41.002Z,17.90
2019-06-07T22:20:10.826Z,17.80
2019-06-07T22:22:39.443Z,17.80
2019-06-07T22:25:09.209Z,17.70
2019-06-07T22:27:38.146Z,17.70
2019-06-07T22:30:10.488Z,17.70
2019-06-07T22:32:39.141Z,17.60
2019-06-07T22:35:08.994Z,17.60
2019-06-07T22:37:37.750Z,17.50
2019-06-07T22:40:08.614Z,17.50
2019-06-07T22:42:37.650Z,17.40
2019-06-07T22:45:10.635Z,17.40
2019-06-07T22:47:38.627Z,17.30
2019-06-07T22:50:10.439Z,17.30
2019-06-07T22:52:39.493Z,17.30
2019-06-07T22:55:10.112Z,17.20
2019-06-07T22:57:57.101Z,17.20
2019-06-07T23:00:27.390Z,17.10
2019-06-07T23:02:56.395Z,17.10
2019-06-07T23:05:25.005Z,17.00
2019-06-07T23:07:53.721Z,17.00
2019-06-07T23:10:22.414Z,17.00
2019-06-07T23:12:50.894Z,16.90
2019-06-07T23:15:20.805Z,16.90
2019-06-07T23:17:49.595Z,16.80
2019-06-07T23:20:18.312Z,16.80
2019-06-07T23:22:46.893Z,16.80
2019-06-07T23:25:20.143Z,16.80
2019-06-07T23:27:46.300Z,16.70
2019-06-07T23:30:16.620Z,16.70
2019-06-07T23:32:45.386Z,16.70
2019-06-07T23:35:17.099Z,16.70
2019-06-07T23:37:45.757Z,16.60
2019-06-07T23:40:15.222Z,16.60
2019-06-07T23:42:44.001Z,16.60
2019-06-07T23:45:13.779Z,16.50
2019-06-07T23:47:42.679Z,16.50
2019-06-07T23:50:11.546Z,16.50
2019-06-07T23:52:40.366Z,16.40
2019-06-07T23:55:09.049Z,16.40
2019-06-07T23:57:37.595Z,16.40
